sensor_id;sensor_type;location;lat;lon;timestamp;pressure;altitude;pressure_sealevel;temperature;humidity
37972;BME280;23794;48.234;8.344;2023-04-29T00:01:59;94088.22;;;11.99;84.17
37972;BME280;23794;48.234;8.344;2023-04-29T00:04:28;94083.94;;;11.98;84.37
37972;BME280;23794;48.234;8.344;2023-04-29T00:06:56;94084.66;;;12.03;83.60
37972;BME280;23794;48.234;8.344;2023-04-29T00:09:23;94089.78;;;12.00;83.98
37972;BME280;23794;48.234;8.344;2023-04-29T00:11:50;94083.56;;;11.96;84.26
37972;BME280;23794;48.234;8.344;2023-04-29T00:14:17;94086.78;;;11.91;84.49
37972;BME280;23794;48.234;8.344;2023-04-29T00:16:44;94091.03;;;11.96;84.10
37972;BME280;23794;48.234;8.344;2023-04-29T00:19:11;94084.75;;;11.95;83.75
37972;BME280;23794;48.234;8.344;2023-04-29T00:21:39;94085.16;;;11.94;83.55
37972;BME280;23794;48.234;8.344;2023-04-29T00:24:05;94086.00;;;11.91;83.46
37972;BME280;23794;48.234;8.344;2023-04-29T00:26:32;94086.09;;;11.83;83.52
37972;BME280;23794;48.234;8.344;2023-04-29T00:29:00;94088.88;;;11.80;83.41
37972;BME280;23794;48.234;8.344;2023-04-29T00:31:30;94090.88;;;11.76;83.43
37972;BME280;23794;48.234;8.344;2023-04-29T00:33:58;94083.56;;;11.65;83.90
37972;BME280;23794;48.234;8.344;2023-04-29T00:36:25;94081.69;;;11.59;83.69
37972;BME280;23794;48.234;8.344;2023-04-29T00:38:52;94085.19;;;11.59;83.59
37972;BME280;23794;48.234;8.344;2023-04-29T00:41:19;94084.09;;;11.53;83.58
37972;BME280;23794;48.234;8.344;2023-04-29T00:43:46;94088.03;;;11.52;83.19
37972;BME280;23794;48.234;8.344;2023-04-29T00:46:13;94085.31;;;11.48;83.46
37972;BME280;23794;48.234;8.344;2023-04-29T00:48:39;94085.44;;;11.38;83.86
37972;BME280;23794;48.234;8.344;2023-04-29T00:51:07;94087.06;;;11.35;83.67
37972;BME280;23794;48.234;8.344;2023-04-29T00:53:34;94089.09;;;11.27;84.31
37972;BME280;23794;48.234;8.344;2023-04-29T00:56:01;94088.69;;;11.29;83.93
37972;BME280;23794;48.234;8.344;2023-04-29T00:58:29;94091.00;;;11.30;84.17
37972;BME280;23794;48.234;8.344;2023-04-29T01:00:59;94083.22;;;11.29;84.21
37972;BME280;23794;48.234;8.344;2023-04-29T01:03:30;94083.63;;;11.24;84.25
37972;BME280;23794;48.234;8.344;2023-04-29T01:11:46;94080.16;;;11.19;84.64
37972;BME280;23794;48.234;8.344;2023-04-29T01:14:15;94071.13;;;11.23;84.30
37972;BME280;23794;48.234;8.344;2023-04-29T01:16:51;94081.34;;;11.18;84.60
37972;BME280;23794;48.234;8.344;2023-04-29T01:19:43;94075.50;;;11.16;84.60
37972;BME280;23794;48.234;8.344;2023-04-29T01:22:11;94070.47;;;11.11;84.24
37972;BME280;23794;48.234;8.344;2023-04-29T01:24:39;94070.88;;;11.10;84.36
37972;BME280;23794;48.234;8.344;2023-04-29T01:35:59;94071.78;;;10.92;84.36
37972;BME280;23794;48.234;8.344;2023-04-29T01:38:36;94069.09;;;10.88;84.38
37972;BME280;23794;48.234;8.344;2023-04-29T01:43:39;94076.56;;;10.84;84.57
37972;BME280;23794;48.234;8.344;2023-04-29T01:46:16;94079.31;;;10.84;84.74
37972;BME280;23794;48.234;8.344;2023-04-29T01:48:52;94073.03;;;10.84;85.00
37972;BME280;23794;48.234;8.344;2023-04-29T01:51:19;94077.72;;;10.87;84.54
37972;BME280;23794;48.234;8.344;2023-04-29T01:53:46;94072.59;;;10.93;84.47
37972;BME280;23794;48.234;8.344;2023-04-29T01:56:17;94073.34;;;10.93;84.80
37972;BME280;23794;48.234;8.344;2023-04-29T01:58:55;94069.81;;;10.96;85.04
37972;BME280;23794;48.234;8.344;2023-04-29T02:01:48;94069.00;;;10.99;84.61
37972;BME280;23794;48.234;8.344;2023-04-29T02:04:16;94071.38;;;10.97;84.87
37972;BME280;23794;48.234;8.344;2023-04-29T02:06:42;94069.00;;;10.99;84.52
37972;BME280;23794;48.234;8.344;2023-04-29T02:09:09;94069.38;;;11.01;84.79
37972;BME280;23794;48.234;8.344;2023-04-29T02:11:41;94068.22;;;11.02;84.85
37972;BME280;23794;48.234;8.344;2023-04-29T02:14:08;94069.34;;;11.05;84.36
37972;BME280;23794;48.234;8.344;2023-04-29T02:16:35;94067.34;;;11.09;84.44
37972;BME280;23794;48.234;8.344;2023-04-29T02:19:05;94063.88;;;11.05;84.49
37972;BME280;23794;48.234;8.344;2023-04-29T02:21:31;94061.09;;;11.09;84.52
37972;BME280;23794;48.234;8.344;2023-04-29T02:23:59;94066.19;;;11.07;84.26
37972;BME280;23794;48.234;8.344;2023-04-29T02:26:27;94062.28;;;11.08;84.22
37972;BME280;23794;48.234;8.344;2023-04-29T02:28:54;94068.22;;;11.02;84.60
37972;BME280;23794;48.234;8.344;2023-04-29T02:31:23;94069.00;;;10.99;84.54
37972;BME280;23794;48.234;8.344;2023-04-29T02:33:49;94063.91;;;11.01;84.17
37972;BME280;23794;48.234;8.344;2023-04-29T02:36:16;94064.72;;;10.98;84.59
37972;BME280;23794;48.234;8.344;2023-04-29T02:38:43;94072.16;;;10.94;84.84
37972;BME280;23794;48.234;8.344;2023-04-29T02:41:17;94079.66;;;10.86;84.99
37972;BME280;23794;48.234;8.344;2023-04-29T02:43:46;94075.38;;;10.89;84.43
37972;BME280;23794;48.234;8.344;2023-04-29T02:46:14;94077.72;;;10.87;84.70
37972;BME280;23794;48.234;8.344;2023-04-29T02:48:42;94078.13;;;10.85;84.55
37972;BME280;23794;48.234;8.344;2023-04-29T02:51:10;94069.13;;;10.85;84.40
37972;BME280;23794;48.234;8.344;2023-04-29T02:53:37;94078.50;;;10.87;84.43
37972;BME280;23794;48.234;8.344;2023-04-29T02:56:04;94071.44;;;10.86;84.52
37972;BME280;23794;48.234;8.344;2023-04-29T02:58:30;94073.84;;;10.84;84.49
37972;BME280;23794;48.234;8.344;2023-04-29T03:00:57;94077.72;;;10.87;84.48
37972;BME280;23794;48.234;8.344;2023-04-29T03:03:24;94078.50;;;10.87;84.45
37972;BME280;23794;48.234;8.344;2023-04-29T03:05:51;94063.25;;;10.83;84.65
37972;BME280;23794;48.234;8.344;2023-04-29T03:08:18;94074.25;;;10.79;84.24
37972;BME280;23794;48.234;8.344;2023-04-29T03:10:45;94061.38;;;10.76;84.35
37972;BME280;23794;48.234;8.344;2023-04-29T03:13:12;94072.75;;;10.71;84.52
37972;BME280;23794;48.234;8.344;2023-04-29T03:15:39;94070.78;;;10.75;84.30
37972;BME280;23794;48.234;8.344;2023-04-29T03:18:06;94063.00;;;10.70;84.51
37972;BME280;23794;48.234;8.344;2023-04-29T03:20:33;94061.44;;;10.69;84.50
37972;BME280;23794;48.234;8.344;2023-04-29T03:23:02;94063.44;;;10.65;84.59
37972;BME280;23794;48.234;8.344;2023-04-29T03:25:29;94052.44;;;10.68;84.11
37972;BME280;23794;48.234;8.344;2023-04-29T03:27:56;94054.41;;;10.68;84.58
37972;BME280;23794;48.234;8.344;2023-04-29T03:30:23;94056.00;;;10.65;84.89
37972;BME280;23794;48.234;8.344;2023-04-29T03:32:54;94057.91;;;10.68;84.13
37972;BME280;23794;48.234;8.344;2023-04-29T03:35:20;94048.16;;;10.64;84.42
37972;BME280;23794;48.234;8.344;2023-04-29T03:38:06;94053.34;;;10.54;84.76
37972;BME280;23794;48.234;8.344;2023-04-29T03:40:35;94052.16;;;10.59;84.47
37972;BME280;23794;48.234;8.344;2023-04-29T03:43:02;94050.22;;;10.56;84.82
37972;BME280;23794;48.234;8.344;2023-04-29T03:45:29;94060.66;;;10.68;84.10
37972;BME280;23794;48.234;8.344;2023-04-29T03:47:59;94057.50;;;10.73;84.28
37972;BME280;23794;48.234;8.344;2023-04-29T03:50:26;94048.06;;;10.78;84.54
37972;BME280;23794;48.234;8.344;2023-04-29T03:52:53;94041.00;;;10.81;84.55
37972;BME280;23794;48.234;8.344;2023-04-29T03:55:20;94042.09;;;10.87;84.66
37972;BME280;23794;48.234;8.344;2023-04-29T03:57:47;94047.50;;;10.94;84.67
37972;BME280;23794;48.234;8.344;2023-04-29T04:00:16;94041.59;;;10.99;84.81
37972;BME280;23794;48.234;8.344;2023-04-29T04:02:45;94049.41;;;11.01;85.15
37972;BME280;23794;48.234;8.344;2023-04-29T04:05:13;94046.66;;;11.04;84.98
37972;BME280;23794;48.234;8.344;2023-04-29T04:07:45;94051.72;;;11.06;84.91
37972;BME280;23794;48.234;8.344;2023-04-29T04:10:42;94053.31;;;11.03;84.86
37972;BME280;23794;48.234;8.344;2023-04-29T04:13:21;94046.22;;;11.10;84.75
37972;BME280;23794;48.234;8.344;2023-04-29T04:15:49;94055.19;;;11.10;84.57
37972;BME280;23794;48.234;8.344;2023-04-29T04:18:19;94060.72;;;11.07;84.39
37972;BME280;23794;48.234;8.344;2023-04-29T04:20:46;94068.13;;;11.10;83.97
37972;BME280;23794;48.234;8.344;2023-04-29T04:23:13;94070.47;;;11.11;83.90
37972;BME280;23794;48.234;8.344;2023-04-29T04:25:47;94065.84;;;11.04;84.03
37972;BME280;23794;48.234;8.344;2023-04-29T04:28:50;94070.59;;;10.93;84.32
37972;BME280;23794;48.234;8.344;2023-04-29T04:31:28;94068.28;;;10.92;84.45
37972;BME280;23794;48.234;8.344;2023-04-29T04:33:55;94074.91;;;10.98;84.28
37972;BME280;23794;48.234;8.344;2023-04-29T04:36:23;94084.69;;;10.99;84.57
37972;BME280;23794;48.234;8.344;2023-04-29T04:38:50;94085.03;;;11.04;84.63
37972;BME280;23794;48.234;8.344;2023-04-29T04:41:17;94081.44;;;11.11;84.20
37972;BME280;23794;48.234;8.344;2023-04-29T04:43:46;94083.06;;;11.05;85.03
37972;BME280;23794;48.234;8.344;2023-04-29T04:46:20;94088.88;;;11.11;84.76
37972;BME280;23794;48.234;8.344;2023-04-29T04:49:07;94085.31;;;11.14;85.17
37972;BME280;23794;48.234;8.344;2023-04-29T04:51:43;94084.50;;;11.17;84.80
37972;BME280;23794;48.234;8.344;2023-04-29T04:54:10;94083.28;;;11.22;84.59
37972;BME280;23794;48.234;8.344;2023-04-29T04:56:37;94083.53;;;11.34;84.09
37972;BME280;23794;48.234;8.344;2023-04-29T04:59:05;94088.56;;;11.40;84.10
37972;BME280;23794;48.234;8.344;2023-04-29T05:01:35;94085.84;;;11.40;83.74
37972;BME280;23794;48.234;8.344;2023-04-29T05:04:02;94091.28;;;11.43;83.70
37972;BME280;23794;48.234;8.344;2023-04-29T05:06:30;94096.41;;;11.38;83.83
37972;BME280;23794;48.234;8.344;2023-04-29T05:08:56;94094.09;;;11.36;83.58
37972;BME280;23794;48.234;8.344;2023-04-29T05:11:23;94102.78;;;11.31;83.71
37972;BME280;23794;48.234;8.344;2023-04-29T05:14:09;94100.34;;;11.36;83.69
37972;BME280;23794;48.234;8.344;2023-04-29T05:16:37;94101.13;;;11.37;83.22
37972;BME280;23794;48.234;8.344;2023-04-29T05:19:07;94098.75;;;11.39;83.08
37972;BME280;23794;48.234;8.344;2023-04-29T05:21:37;94111.19;;;11.47;82.87
37972;BME280;23794;48.234;8.344;2023-04-29T05:24:06;94110.50;;;11.40;82.56
37972;BME280;23794;48.234;8.344;2023-04-29T05:26:34;94115.66;;;11.34;82.04
37972;BME280;23794;48.234;8.344;2023-04-29T05:29:01;94121.91;;;11.38;82.19
37972;BME280;23794;48.234;8.344;2023-04-29T05:31:33;94127.69;;;11.44;81.74
37972;BME280;23794;48.234;8.344;2023-04-29T05:34:03;94123.44;;;11.39;81.91
37972;BME280;23794;48.234;8.344;2023-04-29T05:36:30;94123.44;;;11.39;81.63
37972;BME280;23794;48.234;8.344;2023-04-29T05:39:00;94118.63;;;11.50;81.60
37972;BME280;23794;48.234;8.344;2023-04-29T05:41:28;94126.09;;;11.50;80.54
37972;BME280;23794;48.234;8.344;2023-04-29T05:43:57;94129.84;;;11.63;79.96
37972;BME280;23794;48.234;8.344;2023-04-29T05:46:24;94136.13;;;11.60;80.35
37972;BME280;23794;48.234;8.344;2023-04-29T05:48:52;94137.06;;;11.46;79.59
37972;BME280;23794;48.234;8.344;2023-04-29T05:51:19;94139.00;;;11.49;79.90
37972;BME280;23794;48.234;8.344;2023-04-29T05:53:47;94136.97;;;11.57;79.14
37972;BME280;23794;48.234;8.344;2023-04-29T05:56:14;94134.78;;;11.41;78.40
37972;BME280;23794;48.234;8.344;2023-04-29T05:58:44;94144.88;;;11.51;78.78
37972;BME280;23794;48.234;8.344;2023-04-29T06:01:13;94147.22;;;11.49;77.78
37972;BME280;23794;48.234;8.344;2023-04-29T06:03:43;94147.69;;;11.44;78.00
37972;BME280;23794;48.234;8.344;2023-04-29T06:06:25;94137.56;;;11.38;78.00
37972;BME280;23794;48.234;8.344;2023-04-29T06:09:10;94145.50;;;11.25;78.28
37972;BME280;23794;48.234;8.344;2023-04-29T06:11:52;94147.91;;;11.23;78.55
37972;BME280;23794;48.234;8.344;2023-04-29T06:14:19;94148.31;;;11.17;77.82
37972;BME280;23794;48.234;8.344;2023-04-29T06:16:46;94162.91;;;11.11;77.85
37972;BME280;23794;48.234;8.344;2023-04-29T06:19:14;94166.81;;;11.10;77.64
37972;BME280;23794;48.234;8.344;2023-04-29T06:21:41;94169.09;;;11.15;77.54
37972;BME280;23794;48.234;8.344;2023-04-29T06:24:08;94173.34;;;11.23;78.20
37972;BME280;23794;48.234;8.344;2023-04-29T06:26:34;94169.47;;;11.20;77.28
37972;BME280;23794;48.234;8.344;2023-04-29T06:29:04;94181.13;;;11.28;77.07
37972;BME280;23794;48.234;8.344;2023-04-29T06:31:33;94177.53;;;11.35;77.27
37972;BME280;23794;48.234;8.344;2023-04-29T06:34:02;94186.09;;;11.44;76.37
37972;BME280;23794;48.234;8.344;2023-04-29T06:36:30;94191.66;;;11.33;75.49
37972;BME280;23794;48.234;8.344;2023-04-29T06:39:20;94190.44;;;11.38;75.77
37972;BME280;23794;48.234;8.344;2023-04-29T06:41:55;94189.72;;;11.30;75.21
37972;BME280;23794;48.234;8.344;2023-04-29T06:44:39;94197.19;;;11.30;75.72
37972;BME280;23794;48.234;8.344;2023-04-29T06:47:23;94196.75;;;11.35;76.25
37972;BME280;23794;48.234;8.344;2023-04-29T06:50:08;94194.78;;;11.32;75.38
37972;BME280;23794;48.234;8.344;2023-04-29T06:52:36;94194.44;;;11.30;74.94
37972;BME280;23794;48.234;8.344;2023-04-29T06:55:03;94204.56;;;11.36;74.71
37972;BME280;23794;48.234;8.344;2023-04-29T06:57:29;94196.53;;;11.57;74.47
37972;BME280;23794;48.234;8.344;2023-04-29T06:59:57;94200.03;;;11.61;74.03
37972;BME280;23794;48.234;8.344;2023-04-29T07:02:24;94189.75;;;11.68;74.27
37972;BME280;23794;48.234;8.344;2023-04-29T07:04:51;94197.56;;;11.70;73.84
37972;BME280;23794;48.234;8.344;2023-04-29T07:07:18;94198.31;;;11.74;74.24
37972;BME280;23794;48.234;8.344;2023-04-29T07:09:45;94195.00;;;11.90;73.40
37972;BME280;23794;48.234;8.344;2023-04-29T07:12:11;94200.41;;;11.97;72.95
37972;BME280;23794;48.234;8.344;2023-04-29T07:14:38;94200.00;;;11.99;73.15
37972;BME280;23794;48.234;8.344;2023-04-29T07:17:06;94205.50;;;11.99;72.28
37972;BME280;23794;48.234;8.344;2023-04-29T07:19:33;94202.75;;;11.99;72.14
37972;BME280;23794;48.234;8.344;2023-04-29T07:22:00;94206.47;;;12.16;71.08
37972;BME280;23794;48.234;8.344;2023-04-29T07:24:27;94215.75;;;12.26;71.96
37972;BME280;23794;48.234;8.344;2023-04-29T07:26:54;94218.41;;;12.33;71.32
37972;BME280;23794;48.234;8.344;2023-04-29T07:29:21;94211.69;;;12.38;71.64
37972;BME280;23794;48.234;8.344;2023-04-29T07:31:47;94212.13;;;12.63;70.94
37972;BME280;23794;48.234;8.344;2023-04-29T07:34:14;94212.81;;;12.71;69.59
37972;BME280;23794;48.234;8.344;2023-04-29T07:36:42;94219.34;;;12.81;69.57
37972;BME280;23794;48.234;8.344;2023-04-29T07:39:08;94220.09;;;12.85;68.34
37972;BME280;23794;48.234;8.344;2023-04-29T07:41:37;94234.97;;;12.88;69.27
37972;BME280;23794;48.234;8.344;2023-04-29T07:44:04;94224.75;;;12.88;70.47
37972;BME280;23794;48.234;8.344;2023-04-29T07:46:31;94228.94;;;12.97;69.63
37972;BME280;23794;48.234;8.344;2023-04-29T07:49:05;94227.38;;;12.68;67.51
37972;BME280;23794;48.234;8.344;2023-04-29T07:51:32;94231.91;;;12.82;69.00
37972;BME280;23794;48.234;8.344;2023-04-29T07:54:00;94228.91;;;12.73;67.90
37972;BME280;23794;48.234;8.344;2023-04-29T07:56:27;94239.28;;;12.61;68.97
37972;BME280;23794;48.234;8.344;2023-04-29T07:58:54;94236.47;;;12.65;69.55
37972;BME280;23794;48.234;8.344;2023-04-29T08:01:21;94234.44;;;12.69;68.67
37972;BME280;23794;48.234;8.344;2023-04-29T08:03:48;94240.03;;;12.62;68.70
37972;BME280;23794;48.234;8.344;2023-04-29T08:06:18;94241.34;;;12.81;68.67
37972;BME280;23794;48.234;8.344;2023-04-29T08:08:48;94245.56;;;12.89;69.08
37972;BME280;23794;48.234;8.344;2023-04-29T08:11:17;94250.53;;;12.98;68.41
37972;BME280;23794;48.234;8.344;2023-04-29T08:13:45;94252.81;;;13.03;68.22
37972;BME280;23794;48.234;8.344;2023-04-29T08:16:13;94252.66;;;12.87;67.16
37972;BME280;23794;48.234;8.344;2023-04-29T08:18:40;94252.97;;;12.92;68.37
37972;BME280;23794;48.234;8.344;2023-04-29T08:21:07;94258.91;;;12.60;68.15
37972;BME280;23794;48.234;8.344;2023-04-29T08:23:34;94256.72;;;12.47;68.48
37972;BME280;23794;48.234;8.344;2023-04-29T08:26:01;94254.38;;;12.46;68.69
37972;BME280;23794;48.234;8.344;2023-04-29T08:28:30;94254.06;;;12.37;68.33
37972;BME280;23794;48.234;8.344;2023-04-29T08:30:56;94260.75;;;12.36;68.86
37972;BME280;23794;48.234;8.344;2023-04-29T08:33:23;94263.63;;;12.59;69.48
37972;BME280;23794;48.234;8.344;2023-04-29T08:35:56;94265.03;;;12.71;69.34
37972;BME280;23794;48.234;8.344;2023-04-29T08:38:24;94264.19;;;12.78;68.87
37972;BME280;23794;48.234;8.344;2023-04-29T08:40:51;94269.25;;;12.79;68.61
37972;BME280;23794;48.234;8.344;2023-04-29T08:43:18;94263.66;;;12.87;68.79
37972;BME280;23794;48.234;8.344;2023-04-29T08:45:47;94258.88;;;12.91;68.36
37972;BME280;23794;48.234;8.344;2023-04-29T08:48:15;94268.75;;;12.57;67.70
37972;BME280;23794;48.234;8.344;2023-04-29T08:50:43;94266.41;;;12.56;69.46
37972;BME280;23794;48.234;8.344;2023-04-29T08:53:11;94267.09;;;12.63;68.13
37972;BME280;23794;48.234;8.344;2023-04-29T08:55:45;94256.06;;;12.94;68.21
37972;BME280;23794;48.234;8.344;2023-04-29T08:58:13;94262.94;;;13.34;67.34
37972;BME280;23794;48.234;8.344;2023-04-29T09:00:42;94267.06;;;13.22;66.19
37972;BME280;23794;48.234;8.344;2023-04-29T09:03:30;94274.28;;;13.12;66.45
37972;BME280;23794;48.234;8.344;2023-04-29T09:06:00;94271.78;;;13.21;66.25
37972;BME280;23794;48.234;8.344;2023-04-29T09:08:28;94270.41;;;13.09;65.95
37972;BME280;23794;48.234;8.344;2023-04-29T09:10:56;94273.41;;;13.19;66.18
37972;BME280;23794;48.234;8.344;2023-04-29T09:13:28;94266.31;;;13.45;65.93
37972;BME280;23794;48.234;8.344;2023-04-29T09:15:56;94272.22;;;13.43;65.54
37972;BME280;23794;48.234;8.344;2023-04-29T09:18:44;94273.03;;;13.17;65.70
37972;BME280;23794;48.234;8.344;2023-04-29T09:21:15;94261.88;;;13.27;66.80
37972;BME280;23794;48.234;8.344;2023-04-29T09:23:47;94270.88;;;13.28;65.98
37972;BME280;23794;48.234;8.344;2023-04-29T09:26:15;94265.97;;;13.16;66.62
37972;BME280;23794;48.234;8.344;2023-04-29T09:28:42;94272.66;;;13.15;67.27
37972;BME280;23794;48.234;8.344;2023-04-29T09:31:13;94270.78;;;13.35;67.33
37972;BME280;23794;48.234;8.344;2023-04-29T09:33:53;94277.06;;;13.36;66.33
37972;BME280;23794;48.234;8.344;2023-04-29T09:36:49;94279.97;;;13.52;65.02
37972;BME280;23794;48.234;8.344;2023-04-29T09:39:21;94279.91;;;13.56;65.74
37972;BME280;23794;48.234;8.344;2023-04-29T09:44:34;94272.19;;;13.95;65.17
37972;BME280;23794;48.234;8.344;2023-04-29T09:47:08;94280.97;;;13.62;64.03
37972;BME280;23794;48.234;8.344;2023-04-29T09:49:37;94275.53;;;13.58;64.35
37972;BME280;23794;48.234;8.344;2023-04-29T09:52:11;94280.34;;;13.51;64.84
37972;BME280;23794;48.234;8.344;2023-04-29T09:54:39;94268.34;;;13.65;64.73
37972;BME280;23794;48.234;8.344;2023-04-29T09:57:08;94266.84;;;14.08;64.25
37972;BME280;23794;48.234;8.344;2023-04-29T09:59:37;94264.97;;;14.01;63.03
37972;BME280;23794;48.234;8.344;2023-04-29T10:02:17;94262.84;;;13.88;61.80
37972;BME280;23794;48.234;8.344;2023-04-29T10:04:46;94267.75;;;13.77;61.67
37972;BME280;23794;48.234;8.344;2023-04-29T10:07:15;94262.38;;;13.70;62.32
37972;BME280;23794;48.234;8.344;2023-04-29T10:09:46;94262.81;;;14.32;62.16
37972;BME280;23794;48.234;8.344;2023-04-29T10:12:18;94253.56;;;14.99;61.00
37972;BME280;23794;48.234;8.344;2023-04-29T10:17:56;94250.06;;;15.32;58.68
37972;BME280;23794;48.234;8.344;2023-04-29T10:20:24;94254.97;;;15.41;57.61
37972;BME280;23794;48.234;8.344;2023-04-29T10:22:53;94262.41;;;15.27;56.60
37972;BME280;23794;48.234;8.344;2023-04-29T10:25:22;94254.63;;;15.06;58.36
37972;BME280;23794;48.234;8.344;2023-04-29T10:27:50;94255.63;;;14.95;59.76
37972;BME280;23794;48.234;8.344;2023-04-29T10:30:20;94257.91;;;15.00;58.40
37972;BME280;23794;48.234;8.344;2023-04-29T10:32:48;94254.53;;;15.09;58.70
37972;BME280;23794;48.234;8.344;2023-04-29T10:35:19;94253.59;;;15.16;57.30
37972;BME280;23794;48.234;8.344;2023-04-29T10:37:48;94252.19;;;15.24;58.72
37972;BME280;23794;48.234;8.344;2023-04-29T10:40:23;94254.22;;;15.40;56.67
37972;BME280;23794;48.234;8.344;2023-04-29T10:42:53;94244.94;;;15.97;57.31
37972;BME280;23794;48.234;8.344;2023-04-29T10:45:31;94247.88;;;16.19;56.85
37972;BME280;23794;48.234;8.344;2023-04-29T10:50:29;94246.47;;;16.56;53.12
37972;BME280;23794;48.234;8.344;2023-04-29T10:52:56;94248.53;;;16.39;55.26
37972;BME280;23794;48.234;8.344;2023-04-29T10:55:23;94242.81;;;16.47;52.28
37972;BME280;23794;48.234;8.344;2023-04-29T10:57:54;94247.22;;;16.99;51.90
37972;BME280;23794;48.234;8.344;2023-04-29T11:00:25;94235.25;;;17.54;52.66
37972;BME280;23794;48.234;8.344;2023-04-29T11:02:53;94235.84;;;17.84;52.72
37972;BME280;23794;48.234;8.344;2023-04-29T11:05:31;94231.22;;;17.55;51.79
37972;BME280;23794;48.234;8.344;2023-04-29T11:08:13;94235.81;;;16.97;51.26
37972;BME280;23794;48.234;8.344;2023-04-29T11:10:55;94238.03;;;17.02;53.21
37972;BME280;23794;48.234;8.344;2023-04-29T11:13:28;94229.72;;;17.15;50.37
37972;BME280;23794;48.234;8.344;2023-04-29T11:16:10;94229.72;;;17.02;49.85
37972;BME280;23794;48.234;8.344;2023-04-29T11:19:03;94238.13;;;17.37;50.32
37972;BME280;23794;48.234;8.344;2023-04-29T11:21:29;94226.38;;;17.33;48.83
37972;BME280;23794;48.234;8.344;2023-04-29T11:23:58;94228.72;;;17.22;49.89
37972;BME280;23794;48.234;8.344;2023-04-29T11:26:26;94231.56;;;17.44;50.29
37972;BME280;23794;48.234;8.344;2023-04-29T11:28:55;94235.03;;;17.48;48.36
37972;BME280;23794;48.234;8.344;2023-04-29T11:31:31;94233.31;;;17.77;47.51
37972;BME280;23794;48.234;8.344;2023-04-29T11:33:59;94230.44;;;17.67;46.60
37972;BME280;23794;48.234;8.344;2023-04-29T11:36:26;94222.88;;;18.16;48.49
37972;BME280;23794;48.234;8.344;2023-04-29T11:38:52;94231.13;;;18.29;48.82
37972;BME280;23794;48.234;8.344;2023-04-29T11:41:19;94230.34;;;18.73;47.89
37972;BME280;23794;48.234;8.344;2023-04-29T11:43:57;94229.00;;;18.55;47.31
37972;BME280;23794;48.234;8.344;2023-04-29T11:46:24;94228.66;;;18.09;48.27
37972;BME280;23794;48.234;8.344;2023-04-29T11:48:51;94233.25;;;17.90;48.55
37972;BME280;23794;48.234;8.344;2023-04-29T11:51:18;94238.06;;;17.76;49.31
37972;BME280;23794;48.234;8.344;2023-04-29T11:53:45;94241.69;;;17.86;49.14
37972;BME280;23794;48.234;8.344;2023-04-29T11:56:12;94245.03;;;17.81;50.04
37972;BME280;23794;48.234;8.344;2023-04-29T11:58:41;94238.22;;;17.47;47.62
37972;BME280;23794;48.234;8.344;2023-04-29T12:01:08;94235.91;;;17.32;50.50
37972;BME280;23794;48.234;8.344;2023-04-29T12:03:35;94235.28;;;17.76;51.31
37972;BME280;23794;48.234;8.344;2023-04-29T12:06:02;94234.75;;;17.68;48.74
37972;BME280;23794;48.234;8.344;2023-04-29T12:08:29;94232.72;;;17.08;49.21
37972;BME280;23794;48.234;8.344;2023-04-29T12:10:57;94239.63;;;16.61;49.46
37972;BME280;23794;48.234;8.344;2023-04-29T12:13:29;94230.13;;;16.62;50.86
37972;BME280;23794;48.234;8.344;2023-04-29T12:15:56;94237.19;;;16.63;50.61
37972;BME280;23794;48.234;8.344;2023-04-29T12:18:23;94229.41;;;17.00;50.45
37972;BME280;23794;48.234;8.344;2023-04-29T12:20:51;94224.19;;;17.02;50.36
37972;BME280;23794;48.234;8.344;2023-04-29T12:23:19;94218.44;;;17.10;49.96
37972;BME280;23794;48.234;8.344;2023-04-29T12:25:55;94218.56;;;17.67;49.08
37972;BME280;23794;48.234;8.344;2023-04-29T12:28:23;94214.38;;;18.10;49.65
37972;BME280;23794;48.234;8.344;2023-04-29T12:30:52;94215.47;;;18.35;48.36
37972;BME280;23794;48.234;8.344;2023-04-29T12:33:28;94209.41;;;18.27;46.80
37972;BME280;23794;48.234;8.344;2023-04-29T12:35:57;94220.09;;;17.81;46.91
37972;BME280;23794;48.234;8.344;2023-04-29T12:38:26;94223.72;;;17.30;48.05
37972;BME280;23794;48.234;8.344;2023-04-29T12:40:54;94226.38;;;17.46;48.76
37972;BME280;23794;48.234;8.344;2023-04-29T12:43:30;94214.72;;;17.64;47.75
37972;BME280;23794;48.234;8.344;2023-04-29T12:46:03;94211.94;;;17.64;46.77
37972;BME280;23794;48.234;8.344;2023-04-29T12:48:32;94212.16;;;18.05;47.60
37972;BME280;23794;48.234;8.344;2023-04-29T12:51:03;94220.69;;;18.11;46.26
37972;BME280;23794;48.234;8.344;2023-04-29T12:53:31;94222.28;;;18.43;48.38
37972;BME280;23794;48.234;8.344;2023-04-29T12:55:58;94223.53;;;18.20;45.02
37972;BME280;23794;48.234;8.344;2023-04-29T12:58:28;94223.59;;;18.52;47.94
37972;BME280;23794;48.234;8.344;2023-04-29T13:00:59;94226.72;;;18.85;46.28
37972;BME280;23794;48.234;8.344;2023-04-29T13:03:27;94214.78;;;19.38;45.59
37972;BME280;23794;48.234;8.344;2023-04-29T13:05:54;94207.66;;;19.37;43.31
37972;BME280;23794;48.234;8.344;2023-04-29T13:08:22;94210.56;;;19.93;44.09
37972;BME280;23794;48.234;8.344;2023-04-29T13:10:49;94213.09;;;19.59;45.30
37972;BME280;23794;48.234;8.344;2023-04-29T13:13:16;94219.19;;;18.86;45.27
37972;BME280;23794;48.234;8.344;2023-04-29T13:15:45;94213.94;;;18.88;47.20
37972;BME280;23794;48.234;8.344;2023-04-29T13:18:12;94213.66;;;19.26;46.42
37972;BME280;23794;48.234;8.344;2023-04-29T13:20:40;94212.56;;;19.83;44.79
37972;BME280;23794;48.234;8.344;2023-04-29T13:23:10;94212.28;;;20.18;44.30
37972;BME280;23794;48.234;8.344;2023-04-29T13:25:40;94214.91;;;20.22;42.82
37972;BME280;23794;48.234;8.344;2023-04-29T13:28:07;94216.91;;;20.21;42.38
37972;BME280;23794;48.234;8.344;2023-04-29T13:30:34;94210.84;;;20.42;43.27
37972;BME280;23794;48.234;8.344;2023-04-29T13:33:05;94205.75;;;20.59;42.71
37972;BME280;23794;48.234;8.344;2023-04-29T13:35:40;94206.38;;;20.44;42.18
37972;BME280;23794;48.234;8.344;2023-04-29T13:38:08;94214.28;;;19.90;42.21
37972;BME280;23794;48.234;8.344;2023-04-29T13:40:35;94221.53;;;20.25;42.66